Time;durP1;ratioP1;P1;durP2;ratioP2;P2;SDS_P1;SDS_P2;PMS_P1;PMS_P2;Temp;Humidity;BMP_temperature;BMP_pressure;BME280_temperature;BME280_humidity;BME280_pressure;Samples;Min_cycle;Max_cycle;Signal;HPM_P1;HPM_P2
2023/12/01 00:02:13;;;;;;;30.37;14.73;;;4.30;72.90;;;;;;5053512;28;20173;-67
2023/12/01 00:04:39;;;;;;;33.87;15.33;;;4.40;72.90;;;;;;5095554;28;20032;-67
2023/12/01 00:07:05;;;;;;;29.47;14.07;;;4.30;72.80;;;;;;5098988;28;20042;-67
2023/12/01 00:09:32;;;;;;;34.50;14.77;;;4.30;72.90;;;;;;5095080;28;20027;-67
2023/12/01 00:11:58;;;;;;;32.73;15.20;;;4.30;72.80;;;;;;5084306;28;20111;-67
2023/12/01 00:14:23;;;;;;;34.60;15.97;;;4.30;72.90;;;;;;5080439;28;20545;-67
2023/12/01 00:16:49;;;;;;;34.27;14.40;;;4.30;72.80;;;;;;5081111;28;20047;-67
2023/12/01 00:23:29;;;;;;;34.57;15.57;;;4.30;72.80;;;;;;5061701;28;20082;-67
2023/12/01 00:26:13;;;;;;;34.77;15.20;;;4.20;72.80;;;;;;5069692;28;20044;-67
2023/12/01 00:28:40;;;;;;;35.50;15.57;;;4.20;72.90;;;;;;5051138;28;20040;-67
2023/12/01 00:31:06;;;;;;;38.57;16.40;;;4.20;72.90;;;;;;5067384;28;20041;-67
2023/12/01 00:33:32;;;;;;;36.43;15.43;;;4.20;72.90;;;;;;5073142;28;20346;-67
2023/12/01 00:36:00;;;;;;;39.00;17.60;;;4.20;72.80;;;;;;5060578;28;20128;-67
2023/12/01 00:38:26;;;;;;;45.43;17.57;;;4.20;72.80;;;;;;5088099;28;20040;-67
2023/12/01 00:40:52;;;;;;;40.63;18.40;;;4.30;72.80;;;;;;5071059;28;20453;-67
2023/12/01 00:43:18;;;;;;;41.90;17.33;;;4.30;72.80;;;;;;5086430;28;20107;-67
2023/12/01 01:04:38;;;;;;;40.70;18.30;;;4.20;72.70;;;;;;5080960;28;20426;-67
2023/12/01 01:07:03;;;;;;;48.67;19.47;;;4.20;72.80;;;;;;5051874;28;20025;-67
2023/12/01 01:09:29;;;;;;;45.93;19.70;;;4.20;72.90;;;;;;5073298;28;20441;-67
2023/12/01 01:11:55;;;;;;;45.80;19.33;;;4.20;72.90;;;;;;5082317;28;20028;-67
2023/12/01 01:14:21;;;;;;;48.40;21.27;;;4.20;72.90;;;;;;5036383;28;1176265;-67
2023/12/01 01:16:46;;;;;;;48.33;20.40;;;4.20;72.90;;;;;;5070539;28;20333;-67
2023/12/01 01:19:12;;;;;;;47.00;19.07;;;4.20;72.90;;;;;;5088316;28;20395;-67
2023/12/01 01:21:38;;;;;;;44.63;18.80;;;4.20;72.90;;;;;;5077720;28;20437;-67
2023/12/01 01:24:04;;;;;;;47.93;19.63;;;4.20;72.90;;;;;;5095476;28;20018;-67
2023/12/01 01:26:30;;;;;;;41.00;17.37;;;4.20;72.90;;;;;;5098869;28;20338;-67
2023/12/01 01:28:55;;;;;;;42.83;18.67;;;4.20;72.80;;;;;;5094124;28;20024;-67
2023/12/01 01:31:21;;;;;;;53.53;19.93;;;4.20;72.70;;;;;;5097879;28;20031;-67
2023/12/01 01:33:47;;;;;;;47.97;18.97;;;4.20;72.70;;;;;;5101641;28;20080;-67
2023/12/01 01:36:13;;;;;;;41.90;18.00;;;4.20;72.70;;;;;;5108177;28;20035;-67
2023/12/01 01:38:40;;;;;;;47.57;19.80;;;4.10;72.60;;;;;;5104506;28;20096;-67
2023/12/01 01:41:06;;;;;;;54.67;19.83;;;4.10;72.60;;;;;;5111754;28;20028;-67
2023/12/01 01:43:32;;;;;;;51.93;21.07;;;4.10;72.60;;;;;;5101789;28;20107;-67
2023/12/01 01:46:05;;;;;;;52.27;22.70;;;4.10;72.70;;;;;;5109532;28;20427;-67
2023/12/01 01:48:33;;;;;;;52.83;22.30;;;4.10;72.60;;;;;;5067220;28;20028;-67
2023/12/01 01:51:00;;;;;;;52.10;22.33;;;4.10;72.60;;;;;;5091559;28;20037;-67
2023/12/01 01:53:27;;;;;;;50.53;21.23;;;4.10;72.70;;;;;;5110405;28;20043;-67
2023/12/01 01:55:58;;;;;;;54.00;21.23;;;4.20;72.70;;;;;;5103374;28;20039;-67
2023/12/01 01:58:24;;;;;;;57.25;22.85;;;4.10;72.60;;;;;;5076405;28;20091;-67
2023/12/01 02:00:51;;;;;;;54.53;21.73;;;4.10;72.70;;;;;;5106799;28;20349;-67
2023/12/01 02:03:18;;;;;;;54.03;23.07;;;4.20;72.80;;;;;;5096160;28;20524;-67
2023/12/01 02:05:48;;;;;;;54.40;23.70;;;4.10;72.70;;;;;;5092426;28;20016;-67
2023/12/01 02:08:19;;;;;;;60.93;23.83;;;4.20;72.80;;;;;;5114690;28;20024;-67
2023/12/01 02:10:45;;;;;;;53.67;22.27;;;4.20;72.80;;;;;;5087438;28;20070;-67
2023/12/01 02:13:14;;;;;;;60.43;23.30;;;4.20;72.80;;;;;;5090762;28;20051;-67
2023/12/01 02:15:47;;;;;;;55.67;22.57;;;4.20;72.80;;;;;;5073626;28;20482;-67
2023/12/01 02:18:27;;;;;;;51.00;22.30;;;4.20;72.80;;;;;;5091455;28;20356;-67
2023/12/01 02:20:56;;;;;;;56.67;21.83;;;4.20;72.70;;;;;;5101309;28;20516;-67
2023/12/01 02:23:22;;;;;;;52.70;22.47;;;4.30;72.80;;;;;;5063827;28;20054;-67
2023/12/01 02:25:48;;;;;;;54.03;22.23;;;4.30;72.70;;;;;;5096362;28;20020;-67
2023/12/01 02:28:15;;;;;;;56.13;23.87;;;4.30;72.70;;;;;;5104598;28;20042;-67
2023/12/01 02:30:42;;;;;;;59.93;24.77;;;4.30;72.70;;;;;;5080363;28;20047;-67
2023/12/01 02:33:15;;;;;;;56.53;25.27;;;4.30;72.80;;;;;;5100707;28;20116;-67
2023/12/01 02:35:48;;;;;;;51.13;23.20;;;4.30;72.80;;;;;;5106518;28;20115;-67
2023/12/01 02:38:14;;;;;;;54.73;22.83;;;4.30;72.80;;;;;;5097180;28;20048;-67
2023/12/01 02:40:42;;;;;;;52.77;21.97;;;4.30;72.80;;;;;;5079477;28;20077;-67
2023/12/01 02:43:11;;;;;;;51.73;22.17;;;4.30;72.80;;;;;;5067665;28;20030;-67
2023/12/01 02:45:38;;;;;;;47.10;22.17;;;4.30;72.70;;;;;;5076416;28;20111;-67
2023/12/01 02:48:05;;;;;;;52.60;23.00;;;4.30;72.70;;;;;;5074876;28;20090;-67
2023/12/01 02:50:33;;;;;;;60.67;25.53;;;4.30;72.60;;;;;;5081519;28;20028;-67
2023/12/01 02:53:00;;;;;;;51.83;22.57;;;4.30;72.60;;;;;;5093793;28;20130;-66
2023/12/01 02:55:26;;;;;;;49.50;22.90;;;4.30;72.70;;;;;;5073436;28;20036;-66
2023/12/01 02:57:53;;;;;;;51.17;24.70;;;4.30;72.60;;;;;;5100722;28;20028;-66
2023/12/01 03:00:19;;;;;;;47.60;22.83;;;4.40;72.60;;;;;;5103317;28;20023;-67
2023/12/01 03:02:46;;;;;;;53.30;23.13;;;4.40;72.60;;;;;;5073737;28;20016;-67
2023/12/01 03:05:12;;;;;;;50.90;21.90;;;4.40;72.60;;;;;;5097280;28;20107;-67
2023/12/01 03:07:38;;;;;;;51.67;22.33;;;4.40;72.50;;;;;;5105568;28;20068;-67
2023/12/01 03:10:07;;;;;;;49.03;21.73;;;4.40;72.40;;;;;;5091736;28;20126;-67
2023/12/01 03:12:36;;;;;;;49.53;20.93;;;4.40;72.40;;;;;;5113490;28;20110;-67
2023/12/01 03:15:04;;;;;;;47.13;21.00;;;4.40;72.40;;;;;;5083703;28;20364;-67
2023/12/01 03:17:30;;;;;;;47.00;22.63;;;4.40;72.40;;;;;;5109929;28;20040;-67
2023/12/01 03:19:57;;;;;;;46.80;21.47;;;4.50;72.30;;;;;;5103722;28;20024;-67
2023/12/01 03:22:24;;;;;;;44.10;20.20;;;4.50;72.30;;;;;;5095039;28;20035;-67
2023/12/01 03:24:50;;;;;;;47.93;21.80;;;4.50;72.30;;;;;;5108737;28;20359;-67
2023/12/01 03:27:16;;;;;;;47.10;21.83;;;4.50;72.30;;;;;;5100593;28;20032;-67
2023/12/01 03:29:42;;;;;;;43.83;21.83;;;4.50;72.30;;;;;;5085586;28;20036;-67
2023/12/01 03:32:08;;;;;;;45.40;19.60;;;4.50;72.30;;;;;;5084554;28;20123;-66
2023/12/01 03:34:34;;;;;;;46.20;21.20;;;4.50;73.00;;;;;;5085500;28;20028;-67
2023/12/01 03:37:01;;;;;;;45.03;19.83;;;4.50;72.30;;;;;;5089633;28;20429;-67
2023/12/01 03:39:26;;;;;;;48.40;20.80;;;4.50;72.40;;;;;;5097666;28;20153;-67
2023/12/01 03:41:52;;;;;;;50.10;21.93;;;4.50;72.30;;;;;;5065125;28;20045;-67
2023/12/01 03:44:18;;;;;;;48.30;22.27;;;4.50;72.30;;;;;;5074376;28;20048;-67
2023/12/01 03:46:44;;;;;;;44.20;19.77;;;4.50;72.30;;;;;;5085639;28;20114;-67
2023/12/01 03:49:10;;;;;;;43.30;19.07;;;4.50;72.30;;;;;;5100100;28;20062;-66
2023/12/01 03:51:36;;;;;;;46.37;20.33;;;4.50;72.30;;;;;;5093409;28;20035;-67
2023/12/01 03:54:02;;;;;;;45.80;20.13;;;4.50;72.30;;;;;;5108964;28;20111;-67
2023/12/01 03:56:29;;;;;;;45.60;20.10;;;4.50;72.40;;;;;;5063055;28;20163;-66
2023/12/01 03:58:56;;;;;;;46.23;20.03;;;4.50;72.40;;;;;;5082393;28;20077;-67
2023/12/01 04:01:31;;;;;;;46.00;19.30;;;4.50;72.50;;;;;;5112297;28;20119;-67
2023/12/01 04:03:56;;;;;;;43.80;18.67;;;4.50;72.40;;;;;;5079122;28;20067;-67
2023/12/01 04:06:22;;;;;;;37.57;18.33;;;4.50;72.50;;;;;;5083128;28;20680;-67
2023/12/01 04:08:53;;;;;;;40.53;20.10;;;4.50;72.40;;;;;;5106497;28;20356;-67
2023/12/01 04:11:19;;;;;;;42.13;19.17;;;4.50;72.40;;;;;;5114154;28;20110;-67
2023/12/01 04:13:46;;;;;;;39.50;18.63;;;4.50;72.40;;;;;;5095025;28;20070;-67
2023/12/01 04:16:11;;;;;;;40.17;18.63;;;4.50;72.40;;;;;;5094639;28;20059;-67
2023/12/01 04:18:38;;;;;;;42.10;20.20;;;4.50;72.50;;;;;;5104857;28;20024;-67
2023/12/01 04:21:08;;;;;;;38.80;18.57;;;4.50;72.50;;;;;;5076273;28;20389;-67
2023/12/01 04:23:34;;;;;;;40.00;17.90;;;4.60;72.60;;;;;;5083236;28;20076;-67
2023/12/01 04:26:00;;;;;;;38.97;19.27;;;4.60;72.70;;;;;;5070772;28;20336;-67
2023/12/01 04:28:26;;;;;;;44.50;20.77;;;4.60;72.70;;;;;;5110800;28;20046;-67
2023/12/01 04:30:52;;;;;;;42.90;18.03;;;4.60;72.70;;;;;;5098743;28;20107;-67
2023/12/01 04:33:19;;;;;;;45.73;20.00;;;4.60;72.80;;;;;;5115473;28;20042;-67
2023/12/01 04:35:45;;;;;;;42.13;19.77;;;4.60;72.70;;;;;;5081619;28;20028;-67
2023/12/01 04:38:10;;;;;;;42.13;19.53;;;4.60;72.70;;;;;;5081851;28;20539;-66
2023/12/01 04:40:39;;;;;;;45.83;18.53;;;4.50;72.60;;;;;;5097870;28;20035;-67
2023/12/01 04:43:05;;;;;;;41.00;18.90;;;4.60;72.70;;;;;;5082357;28;20022;-66
2023/12/01 04:45:32;;;;;;;45.60;20.47;;;4.60;72.70;;;;;;5079938;28;20386;-67
2023/12/01 04:47:58;;;;;;;41.43;18.80;;;4.60;72.80;;;;;;5081058;28;20027;-67
2023/12/01 04:50:26;;;;;;;49.00;19.93;;;4.60;72.80;;;;;;5061992;28;20029;-67
2023/12/01 04:52:54;;;;;;;44.20;19.37;;;4.60;72.80;;;;;;5079402;28;20024;-67
2023/12/01 04:55:22;;;;;;;44.17;21.30;;;4.60;72.90;;;;;;5081138;28;20092;-67
2023/12/01 04:57:48;;;;;;;41.03;19.67;;;4.60;72.90;;;;;;5106951;28;20567;-67
2023/12/01 05:00:22;;;;;;;44.93;21.37;;;4.60;73.00;;;;;;5098275;28;20443;-67
2023/12/01 05:03:04;;;;;;;46.27;21.87;;;4.60;72.90;;;;;;5078680;28;20020;-67
2023/12/01 05:05:32;;;;;;;43.97;22.90;;;4.60;72.90;;;;;;5095748;28;20157;-67
2023/12/01 05:08:00;;;;;;;45.23;21.90;;;4.60;73.00;;;;;;5095961;28;20028;-66
2023/12/01 05:10:28;;;;;;;45.67;21.30;;;4.60;72.90;;;;;;5091755;28;20396;-66
2023/12/01 05:12:55;;;;;;;41.07;20.57;;;4.60;73.00;;;;;;5072610;28;20376;-67
2023/12/01 05:15:24;;;;;;;48.07;19.80;;;4.60;72.90;;;;;;5096303;28;20155;-67
2023/12/01 05:17:56;;;;;;;44.33;20.10;;;4.60;72.90;;;;;;5097195;28;20034;-67
2023/12/01 05:20:24;;;;;;;48.50;22.60;;;4.60;72.90;;;;;;5077819;28;20130;-67
2023/12/01 05:22:52;;;;;;;44.33;19.50;;;4.60;73.00;;;;;;5076184;28;20025;-67
2023/12/01 05:25:19;;;;;;;48.40;23.73;;;4.60;73.00;;;;;;5076456;28;20017;-67
2023/12/01 05:27:49;;;;;;;46.20;22.40;;;4.60;73.00;;;;;;5114678;28;20054;-66
2023/12/01 05:30:19;;;;;;;44.33;22.57;;;4.60;73.00;;;;;;5110046;28;20028;-67
2023/12/01 05:32:50;;;;;;;42.22;20.95;;;4.60;73.00;;;;;;5098128;28;20078;-66
2023/12/01 05:35:16;;;;;;;44.90;21.17;;;4.60;73.00;;;;;;5090635;28;20021;-66
2023/12/01 05:37:48;;;;;;;50.70;21.50;;;4.60;72.90;;;;;;5113685;28;20023;-66
2023/12/01 05:40:27;;;;;;;47.83;22.07;;;4.60;72.90;;;;;;5102791;28;20032;-67
2023/12/01 05:42:54;;;;;;;47.20;22.47;;;4.60;72.90;;;;;;5072795;28;20020;-67
2023/12/01 05:45:21;;;;;;;46.43;21.70;;;4.60;72.90;;;;;;5075364;28;20051;-66
2023/12/01 05:47:49;;;;;;;47.30;21.30;;;4.60;72.90;;;;;;5094671;28;20032;-66
2023/12/01 05:50:23;;;;;;;47.30;22.67;;;4.60;72.90;;;;;;5103458;28;20446;-66
2023/12/01 05:52:51;;;;;;;47.17;23.97;;;4.60;73.00;;;;;;5090658;28;20423;-66
2023/12/01 05:55:28;;;;;;;50.77;23.03;;;4.60;73.00;;;;;;5095186;28;20447;-66
2023/12/01 05:57:56;;;;;;;49.17;21.67;;;4.60;73.00;;;;;;5096401;28;20039;-66
2023/12/01 06:00:26;;;;;;;54.47;23.03;;;4.60;73.00;;;;;;5091554;28;20024;-66
2023/12/01 06:02:52;;;;;;;45.87;20.93;;;4.60;73.10;;;;;;5068810;28;20020;-66
2023/12/01 06:05:20;;;;;;;49.20;20.73;;;4.60;73.00;;;;;;5093278;28;20028;-66
2023/12/01 06:07:58;;;;;;;41.73;21.10;;;4.60;73.00;;;;;;5077499;28;20448;-66
2023/12/01 06:10:26;;;;;;;37.33;17.97;;;4.60;72.90;;;;;;5102148;28;20040;-67
2023/12/01 06:12:52;;;;;;;41.43;19.20;;;4.60;72.90;;;;;;5087163;28;20028;-67
2023/12/01 06:15:19;;;;;;;34.70;16.40;;;4.60;73.40;;;;;;5077240;28;20059;-67
2023/12/01 06:17:49;;;;;;;31.13;14.47;;;4.60;72.60;;;;;;5061084;28;20039;-67
2023/12/01 06:20:18;;;;;;;26.43;12.23;;;4.50;72.30;;;;;;5075636;28;20051;-67
2023/12/01 06:22:56;;;;;;;28.50;13.80;;;4.50;72.10;;;;;;5086895;28;20039;-67
2023/12/01 06:25:27;;;;;;;29.60;12.23;;;4.50;71.80;;;;;;5095123;28;20478;-67
2023/12/01 06:27:57;;;;;;;25.73;11.77;;;4.50;71.50;;;;;;5107301;28;20124;-67
2023/12/01 06:30:24;;;;;;;24.97;10.80;;;4.50;71.40;;;;;;5077304;28;20024;-68
2023/12/01 06:32:50;;;;;;;25.33;10.93;;;4.50;71.30;;;;;;5093849;28;20039;-67
2023/12/01 06:35:18;;;;;;;28.13;11.40;;;4.50;71.20;;;;;;5095723;28;20028;-67
2023/12/01 06:37:44;;;;;;;22.07;11.07;;;4.40;70.90;;;;;;5095086;28;20126;-67
2023/12/01 06:40:11;;;;;;;25.80;10.70;;;4.40;70.80;;;;;;5081860;28;20100;-67
2023/12/01 06:42:48;;;;;;;24.20;11.30;;;4.40;70.70;;;;;;5098158;28;20020;-67
2023/12/01 06:45:17;;;;;;;26.20;11.00;;;4.40;70.50;;;;;;5071514;28;20043;-67
2023/12/01 06:47:46;;;;;;;28.27;12.07;;;4.40;70.50;;;;;;5099855;28;20031;-67
2023/12/01 06:50:16;;;;;;;29.03;12.33;;;4.40;70.40;;;;;;5095149;28;20054;-67
2023/12/01 06:52:46;;;;;;;24.43;11.43;;;4.40;70.30;;;;;;5100990;28;20081;-67
2023/12/01 06:55:12;;;;;;;24.77;11.50;;;4.40;70.10;;;;;;5059541;28;20134;-67
2023/12/01 06:57:45;;;;;;;24.40;12.20;;;4.40;70.10;;;;;;5094587;28;20056;-67
2023/12/01 07:02:59;;;;;;;24.30;10.83;;;4.40;70.00;;;;;;5111038;28;20024;-67
2023/12/01 07:05:27;;;;;;;23.63;11.53;;;4.30;69.90;;;;;;5094246;28;20024;-67
2023/12/01 07:07:56;;;;;;;25.30;11.47;;;4.30;69.80;;;;;;5092182;28;20148;-67
2023/12/01 07:10:23;;;;;;;25.77;11.10;;;4.30;69.90;;;;;;5080212;28;20116;-67
2023/12/01 07:12:49;;;;;;;27.70;12.33;;;4.30;69.80;;;;;;5083093;28;20046;-67
2023/12/01 07:15:20;;;;;;;22.83;10.47;;;4.30;69.80;;;;;;5101845;28;20043;-67
2023/12/01 07:17:50;;;;;;;23.03;11.37;;;4.30;69.80;;;;;;5080187;28;20408;-67
2023/12/01 07:20:18;;;;;;;26.30;10.97;;;4.30;69.80;;;;;;5077502;28;20364;-67
2023/12/01 07:22:47;;;;;;;28.70;12.10;;;4.30;69.80;;;;;;5086614;28;20032;-68
2023/12/01 07:25:23;;;;;;;22.80;11.30;;;4.20;69.70;;;;;;5093467;28;20077;-68
2023/12/01 07:27:58;;;;;;;24.50;10.33;;;4.30;69.80;;;;;;5083705;28;20039;-68
2023/12/01 07:30:27;;;;;;;23.43;11.13;;;4.30;69.70;;;;;;5080923;28;20040;-68
2023/12/01 07:32:53;;;;;;;26.70;12.27;;;4.40;69.70;;;;;;5096090;28;20123;-68
2023/12/01 07:35:20;;;;;;;23.03;10.63;;;4.40;69.60;;;;;;5095513;28;20020;-68
2023/12/01 07:37:47;;;;;;;26.97;12.37;;;4.40;69.50;;;;;;5117669;28;20065;-69
2023/12/01 07:40:19;;;;;;;26.53;13.10;;;4.40;69.60;;;;;;5063098;28;20024;-69
2023/12/01 07:42:45;;;;;;;22.85;10.45;;;4.40;69.60;;;;;;5097849;28;20020;-68
2023/12/01 07:45:14;;;;;;;24.17;10.97;;;4.30;69.50;;;;;;5067999;28;20078;-68
2023/12/01 07:47:40;;;;;;;22.87;10.33;;;4.30;69.50;;;;;;5097355;28;20341;-68
2023/12/01 07:50:07;;;;;;;23.40;8.97;;;4.30;69.40;;;;;;5094383;28;20016;-68
2023/12/01 07:52:33;;;;;;;20.70;8.50;;;4.20;69.40;;;;;;5079520;28;20024;-69
2023/12/01 07:54:59;;;;;;;24.00;10.37;;;4.20;69.40;;;;;;5073045;28;20356;-67
2023/12/01 07:57:25;;;;;;;23.03;10.10;;;4.20;69.40;;;;;;5064437;28;20023;-68
2023/12/01 07:59:50;;;;;;;22.87;9.70;;;4.20;69.30;;;;;;5089038;28;20342;-68
2023/12/01 08:02:16;;;;;;;23.17;9.50;;;4.10;69.20;;;;;;5079686;28;20380;-68
2023/12/01 08:04:42;;;;;;;25.57;10.67;;;4.10;69.10;;;;;;5097293;28;20039;-65
2023/12/01 08:07:07;;;;;;;22.67;8.80;;;4.10;69.00;;;;;;5062521;28;20020;-65
2023/12/01 08:09:34;;;;;;;23.63;10.37;;;4.10;69.00;;;;;;5080230;28;20032;-68
2023/12/01 08:12:05;;;;;;;21.47;9.23;;;4.10;69.00;;;;;;5097887;28;20028;-66
2023/12/01 08:14:31;;;;;;;19.30;8.43;;;4.10;68.90;;;;;;5079454;28;20478;-66
2023/12/01 08:16:57;;;;;;;22.00;9.03;;;4.10;68.80;;;;;;5079240;28;20028;-67
2023/12/01 08:19:23;;;;;;;24.37;10.13;;;4.00;68.70;;;;;;5080161;28;20035;-68
2023/12/01 08:21:49;;;;;;;21.03;9.70;;;4.10;68.70;;;;;;5098571;28;20031;-66
2023/12/01 08:24:17;;;;;;;23.53;9.57;;;4.10;68.70;;;;;;5108053;28;20099;-67
2023/12/01 08:26:43;;;;;;;19.27;8.47;;;4.10;68.60;;;;;;5083666;28;20439;-65
2023/12/01 08:29:08;;;;;;;21.13;10.23;;;4.10;68.40;;;;;;5088142;28;20027;-67
2023/12/01 08:31:35;;;;;;;19.13;8.37;;;4.10;68.30;;;;;;5080750;28;20471;-66
2023/12/01 08:34:01;;;;;;;18.20;8.70;;;4.10;68.10;;;;;;5095820;28;20027;-66
2023/12/01 08:36:26;;;;;;;19.23;9.03;;;4.00;68.00;;;;;;5091117;28;20032;-66
2023/12/01 08:38:52;;;;;;;18.70;8.63;;;4.00;67.90;;;;;;5078750;28;20039;-66
2023/12/01 08:41:18;;;;;;;20.93;9.63;;;4.00;67.90;;;;;;5079606;28;20035;-66
2023/12/01 08:43:44;;;;;;;21.67;9.50;;;4.00;67.90;;;;;;5078031;28;20020;-66
2023/12/01 08:46:09;;;;;;;19.13;8.43;;;4.00;67.80;;;;;;5095976;28;20023;-66
2023/12/01 08:48:35;;;;;;;22.47;9.43;;;4.00;67.80;;;;;;5084824;28;20353;-66
2023/12/01 08:51:02;;;;;;;20.80;9.60;;;4.00;67.70;;;;;;5096680;28;20484;-66
2023/12/01 08:53:28;;;;;;;22.43;9.13;;;4.00;67.70;;;;;;5094801;28;20372;-66
2023/12/01 08:55:55;;;;;;;23.17;11.30;;;4.00;67.70;;;;;;5078374;28;20028;-66
2023/12/01 08:58:22;;;;;;;22.80;9.67;;;4.10;67.70;;;;;;5096013;28;20357;-65
2023/12/01 09:00:48;;;;;;;21.43;9.60;;;4.10;67.60;;;;;;5078039;28;20028;-66
2023/12/01 09:03:14;;;;;;;20.57;9.70;;;4.10;67.60;;;;;;5095741;28;20023;-70
2023/12/01 09:05:40;;;;;;;24.53;10.43;;;4.10;67.50;;;;;;5061961;28;20384;-70
2023/12/01 09:08:05;;;;;;;19.30;9.50;;;4.10;67.40;;;;;;5079060;28;20100;-68
2023/12/01 09:10:34;;;;;;;20.60;9.77;;;4.10;67.30;;;;;;5078586;28;20054;-66
2023/12/01 09:13:00;;;;;;;20.73;9.27;;;4.10;67.10;;;;;;5077348;28;20462;-68
2023/12/01 09:15:26;;;;;;;20.63;9.17;;;4.10;67.20;;;;;;5056675;28;20040;-68
2023/12/01 09:17:52;;;;;;;19.40;8.80;;;4.10;67.20;;;;;;5078815;28;20051;-69
2023/12/01 09:20:19;;;;;;;22.00;9.57;;;4.20;67.20;;;;;;5096804;28;20020;-70
2023/12/01 09:22:46;;;;;;;17.77;8.43;;;4.20;67.10;;;;;;5078204;28;20027;-70
2023/12/01 09:25:11;;;;;;;19.17;9.20;;;4.20;67.00;;;;;;5079045;28;20081;-68
2023/12/01 09:27:37;;;;;;;20.90;9.40;;;4.20;67.00;;;;;;5094429;28;20063;-69
2023/12/01 09:30:05;;;;;;;19.73;9.10;;;4.20;66.90;;;;;;5095716;28;20424;-69
2023/12/01 09:32:30;;;;;;;20.03;9.57;;;4.30;66.80;;;;;;5098058;28;20028;-70
2023/12/01 09:34:56;;;;;;;20.60;10.03;;;4.30;66.60;;;;;;5084202;28;20023;-66
2023/12/01 09:37:23;;;;;;;20.00;9.17;;;4.30;66.60;;;;;;5073214;28;20111;-63
2023/12/01 09:39:49;;;;;;;20.40;9.53;;;4.30;66.50;;;;;;5095687;28;20089;-67
2023/12/01 09:42:16;;;;;;;19.03;9.90;;;4.40;66.60;;;;;;5095604;28;20035;-64
2023/12/01 09:44:43;;;;;;;21.43;10.17;;;4.40;66.50;;;;;;5078914;28;20020;-66
2023/12/01 09:47:12;;;;;;;18.77;8.27;;;4.30;66.40;;;;;;5072424;28;20031;-65
2023/12/01 09:49:38;;;;;;;19.73;9.27;;;4.40;66.50;;;;;;5085356;28;20024;-65
2023/12/01 09:52:05;;;;;;;21.67;9.33;;;4.40;66.50;;;;;;5099781;28;20546;-65
2023/12/01 09:54:31;;;;;;;19.20;8.03;;;4.40;66.40;;;;;;5066226;28;20028;-65
2023/12/01 09:56:58;;;;;;;20.93;10.33;;;4.40;66.40;;;;;;5088573;28;20058;-64
2023/12/01 09:59:24;;;;;;;19.33;8.53;;;4.30;66.40;;;;;;5081160;28;20039;-65
2023/12/01 10:01:52;;;;;;;23.17;8.90;;;4.40;66.40;;;;;;5101642;28;20081;-63
2023/12/01 10:04:19;;;;;;;19.93;8.70;;;4.40;66.40;;;;;;5091962;28;20035;-64
2023/12/01 10:06:45;;;;;;;20.13;9.30;;;4.40;66.30;;;;;;5102837;28;20352;-65
2023/12/01 10:09:12;;;;;;;17.83;8.70;;;4.40;66.20;;;;;;5077103;28;20016;-65
2023/12/01 10:11:38;;;;;;;19.97;8.43;;;4.40;66.20;;;;;;5097860;28;20030;-69
2023/12/01 10:14:08;;;;;;;20.73;9.50;;;4.30;66.20;;;;;;5092927;28;20016;-65
2023/12/01 10:16:35;;;;;;;19.03;9.23;;;4.30;66.30;;;;;;5078784;28;20420;-65
2023/12/01 10:19:05;;;;;;;19.03;8.43;;;4.30;66.30;;;;;;5075699;28;20464;-66
2023/12/01 10:21:49;;;;;;;19.80;9.07;;;4.40;66.40;;;;;;5064925;28;20040;-64
2023/12/01 10:24:22;;;;;;;19.03;8.67;;;4.40;66.30;;;;;;5059185;28;20035;-64
2023/12/01 10:27:01;;;;;;;18.57;7.97;;;4.40;66.30;;;;;;5055213;28;20069;-67
2023/12/01 10:29:30;;;;;;;21.03;9.00;;;4.40;66.20;;;;;;5064059;28;20510;-66
2023/12/01 10:31:58;;;;;;;19.90;8.80;;;4.40;66.20;;;;;;5085150;28;20106;-66
2023/12/01 10:34:24;;;;;;;20.23;8.87;;;4.50;66.10;;;;;;5068469;28;20025;-66
2023/12/01 10:36:52;;;;;;;19.57;8.83;;;4.50;66.00;;;;;;5058900;28;20027;-66
2023/12/01 10:39:21;;;;;;;21.07;10.17;;;4.60;65.90;;;;;;5080270;28;20031;-67
2023/12/01 10:41:48;;;;;;;21.90;9.67;;;4.60;65.90;;;;;;5075583;28;20044;-68
2023/12/01 10:44:18;;;;;;;23.80;10.60;;;4.60;66.50;;;;;;5057293;28;20033;-68
2023/12/01 10:46:48;;;;;;;25.77;11.60;;;4.60;65.80;;;;;;5062566;28;20032;-67
2023/12/01 10:49:17;;;;;;;22.27;10.63;;;4.60;65.70;;;;;;5074428;28;20035;-66
2023/12/01 10:51:44;;;;;;;21.67;9.93;;;4.60;65.70;;;;;;5078961;28;20036;-68
2023/12/01 10:54:11;;;;;;;19.80;8.97;;;4.60;65.60;;;;;;5077203;28;20032;-68
2023/12/01 10:57:14;;;;;;;22.43;9.97;;;4.60;65.50;;;;;;5059225;28;20437;-68
2023/12/01 10:59:45;;;;;;;24.00;11.20;;;4.60;65.40;;;;;;5062138;28;20040;-68
2023/12/01 11:02:13;;;;;;;20.90;9.13;;;4.60;65.50;;;;;;5077028;28;20036;-68
2023/12/01 11:04:44;;;;;;;21.40;9.27;;;4.60;65.60;;;;;;5041045;28;20100;-68
2023/12/01 11:07:34;;;;;;;22.67;10.53;;;4.60;65.50;;;;;;5082215;28;20058;-68
2023/12/01 11:10:07;;;;;;;22.97;10.07;;;4.60;65.30;;;;;;5057925;28;20170;-68
2023/12/01 11:12:57;;;;;;;20.77;9.43;;;4.60;65.40;;;;;;5075044;28;20044;-69
2023/12/01 11:15:26;;;;;;;21.20;9.60;;;4.60;65.20;;;;;;5084128;28;20044;-66
2023/12/01 11:17:52;;;;;;;18.27;8.63;;;4.60;65.30;;;;;;5099117;28;20451;-67
2023/12/01 11:20:41;;;;;;;20.57;9.37;;;4.50;65.20;;;;;;5094173;28;20036;-67
2023/12/01 11:23:10;;;;;;;20.83;9.30;;;4.50;65.20;;;;;;5099341;28;20031;-68
2023/12/01 11:25:43;;;;;;;18.77;8.23;;;4.50;65.30;;;;;;5097967;28;20024;-68
2023/12/01 11:28:21;;;;;;;17.43;8.60;;;4.50;65.30;;;;;;5092433;28;20024;-68
2023/12/01 11:31:09;;;;;;;19.87;8.47;;;4.50;65.20;;;;;;5077323;28;20032;-67
2023/12/01 11:33:46;;;;;;;18.73;7.90;;;4.50;65.10;;;;;;5082468;28;20488;-67
2023/12/01 11:36:22;;;;;;;20.43;8.50;;;4.50;65.20;;;;;;5093885;28;20099;-67
2023/12/01 11:39:20;;;;;;;18.93;9.07;;;4.60;65.30;;;;;;5075252;28;20115;-67
2023/12/01 11:41:53;;;;;;;20.30;9.40;;;4.50;65.20;;;;;;5078478;28;20054;-67
2023/12/01 11:44:26;;;;;;;18.80;8.33;;;4.50;65.20;;;;;;5096965;28;20077;-67
2023/12/01 11:46:57;;;;;;;20.60;9.40;;;4.50;65.30;;;;;;5094314;28;20111;-67
2023/12/01 11:49:26;;;;;;;20.40;9.27;;;4.50;65.30;;;;;;5059763;28;20145;-67
2023/12/01 11:51:52;;;;;;;21.33;9.37;;;4.50;65.30;;;;;;5099063;28;20015;-68
2023/12/01 11:54:18;;;;;;;25.67;11.00;;;4.50;65.30;;;;;;5079852;28;20089;-69
2023/12/01 11:56:53;;;;;;;23.43;10.73;;;4.50;65.30;;;;;;5095045;28;20056;-69
2023/12/01 11:59:19;;;;;;;23.27;11.47;;;4.50;65.40;;;;;;5081407;28;20149;-69
2023/12/01 12:01:46;;;;;;;26.30;10.50;;;4.60;65.50;;;;;;5083916;28;20428;-69
2023/12/01 12:04:18;;;;;;;20.17;9.97;;;4.60;65.60;;;;;;5085872;28;20015;-70
2023/12/01 12:06:44;;;;;;;23.83;10.57;;;4.60;65.60;;;;;;5076365;28;20447;-69
2023/12/01 12:09:17;;;;;;;22.80;10.73;;;4.60;65.60;;;;;;5080449;28;20028;-69
2023/12/01 12:11:45;;;;;;;22.57;10.13;;;4.50;65.60;;;;;;5061568;28;20070;-66
2023/12/01 12:14:12;;;;;;;20.93;10.20;;;4.60;65.70;;;;;;5080093;28;20036;-67
2023/12/01 12:16:38;;;;;;;21.27;9.80;;;4.60;65.70;;;;;;5082048;28;20131;-67
2023/12/01 12:19:06;;;;;;;21.97;9.60;;;4.60;65.60;;;;;;5062649;28;20421;-68
2023/12/01 12:21:33;;;;;;;21.40;9.63;;;4.50;65.50;;;;;;5077527;28;20020;-68
2023/12/01 12:23:59;;;;;;;21.10;10.13;;;4.50;65.50;;;;;;5067724;28;20021;-68
2023/12/01 12:26:28;;;;;;;20.17;9.43;;;4.50;65.50;;;;;;5060017;28;20023;-69
2023/12/01 12:28:57;;;;;;;21.77;10.10;;;4.50;65.40;;;;;;5077482;28;20039;-68
2023/12/01 12:31:38;;;;;;;23.73;11.37;;;4.50;65.50;;;;;;5079102;28;20040;-68
2023/12/01 12:34:13;;;;;;;19.87;10.40;;;4.50;65.50;;;;;;5078202;28;20738;-68
2023/12/01 12:36:39;;;;;;;22.53;10.10;;;4.50;65.50;;;;;;5064541;28;20463;-68
2023/12/01 12:39:06;;;;;;;19.83;9.73;;;4.50;65.50;;;;;;5065305;28;20108;-69
2023/12/01 12:41:34;;;;;;;20.40;9.67;;;4.40;65.50;;;;;;5070218;28;20383;-69
2023/12/01 12:44:02;;;;;;;23.37;11.13;;;4.40;65.50;;;;;;5085273;28;20114;-68
2023/12/01 12:46:29;;;;;;;25.10;11.70;;;4.40;65.60;;;;;;5077679;28;20020;-69
2023/12/01 12:48:57;;;;;;;21.80;10.40;;;4.50;65.60;;;;;;5061102;28;20048;-68
2023/12/01 12:51:29;;;;;;;22.63;11.00;;;4.50;65.50;;;;;;5078236;28;20157;-68
2023/12/01 12:53:56;;;;;;;23.27;11.30;;;4.50;65.50;;;;;;5061479;28;20029;-68
2023/12/01 12:56:23;;;;;;;19.70;9.53;;;4.40;65.50;;;;;;5083816;28;20028;-69
2023/12/01 12:58:50;;;;;;;22.37;10.73;;;4.40;65.50;;;;;;5081125;28;20090;-70
2023/12/01 13:01:16;;;;;;;24.77;11.37;;;4.50;65.60;;;;;;5062097;28;20051;-69
2023/12/01 13:03:42;;;;;;;23.90;12.00;;;4.50;65.50;;;;;;5058909;28;20029;-68
2023/12/01 13:06:08;;;;;;;25.23;12.37;;;4.40;65.50;;;;;;5044598;28;20017;-68
2023/12/01 13:08:38;;;;;;;30.23;14.57;;;4.50;65.60;;;;;;5057538;28;20028;-68
2023/12/01 13:11:05;;;;;;;26.10;12.13;;;4.40;65.50;;;;;;5081316;28;20509;-69
2023/12/01 13:13:31;;;;;;;24.60;10.97;;;4.50;65.50;;;;;;5064400;28;20115;-69